Milton Keynes, United Kingdom

10:18 PM BST on August 21, 2014 (GMT +0100)
Newport Pagnell | Change Station
CLOSE
Current Station
Personal Weather Station
Location: Newport Pagnell, BUCKS
Elevation: 200 ft
Nearby Weather Stations

Elev 200 ft 52.09 °N, 0.74 °W | Updated 8 minutes ago

Scattered Clouds
Scattered Clouds
56.8 °F
Feels Like 56.8 °F
N
7.0
Wind Variable Wind from SSW
Gusts 12.0 mph

Today
High -- | Low -- °F
--% Chance of Precip.
Yesterday
High -- | Low -- °F
Precip. -- in
5:56 AM 8:14 PM
Waning Crescent, 12% visible
Pressure 29.89 in
Visibility 6.2 miles
Clouds Scattered Clouds 4500 ft
Dew Point 46 °F
Humidity 68%
Rainfall 0.00 in
Snow Depth Not available.
UV 0 out of 12
Pollen Not available.
Air Quality Not available.
Flu Activity Not available.
METAR EGGW 212050Z 22008KT 9999 SCT045 13/09 Q1012

More Conditions Fewer Conditions

Pressure 29.89 in
Visibility 6.2 miles
Clouds Scattered Clouds 4500 ft
Dew Point 46 °F
Humidity 68%
Rainfall 0.00 in
Snow Depth Not available.
UV 0 out of 12
Pollen Not available.
Air Quality Not available.
Flu Activity Not available.
METAR EGGW 212050Z 22008KT 9999 SCT045 13/09 Q1012

More Conditions Fewer Conditions

10-Day Weather Forecast

Almanac

Astronomy

Aug. 21, 2014 Rise Set
Actual Time 5:56 AM BST 8:14 PM BST
Civil Twilight 5:19 AM BST 8:51 PM BST
Nautical Twilight 4:32 AM BST 9:38 PM BST
Astronomical Twilight 3:36 AM BST 10:32 PM BST
Moon 2:00 AM BST 5:44 PM BST
Length of Visible Light 15h 32m
Length of Day
14h 18m
Tomorrow will be 3m 47s shorter.
Waning Crescent, 12% of the Moon is Illuminated
Today
Waning Crescent
Aug 25
New
Sep 2
First Quarter
Sep 8
Full
Sep 15
Last Quarter

Today's Extremes

Country Highs Country Lows

Community

WunderPhotos

Upload Photos

1,746,019 photos uploaded!

WunderBlogs® & News

Nearby

Snow Depth

Not available.

Earthquake Activity

City Distance Mag. Time & Date
No recent earthquake activity has been reported nearby.
Minimum magnitude displayed is 2.5.

Coastal Water Temperatures

Place Temperature
No Stations Reporting

Nearby Weather Stations